Terminal Aerodrome Forecast
Issued by NWS

Home | Current Version | Previous Version | Text Only | Print | Product List | Glossary Off
Versions: 1 2 3 4 5 6 7 8 9 10 11 12 13 14 15 16 17 18 19 20 21 22 23 24 25 26 27 28 29 30 31 32 33 34 35 36 37 38 39 40 41 42 43 44 45 46 47 48 49 50

000
FTUS43 KGRB 242146 AAA
TAFRHI
TAF AMD
KRHI 242146Z 2422/2518 24009KT P6SM BKN040
     FM250100 32003KT P6SM SCT045 BKN250
     FM250300 VRB03KT 3SM BR SCT006 BKN250
      TEMPO 2507/2511 1SM BR BKN004
     FM251400 11005KT P6SM SCT018 BKN200=

USA.gov is the U.S. government's official web portal to all federal, state and local government web resources and services.